createdAt,value
2023-01-03T00:01:12.857Z,66.50
2023-01-03T00:03:44.194Z,72.00
2023-01-03T00:06:32.431Z,71.25
2023-01-03T00:09:06.667Z,67.50
2023-01-03T00:11:39.626Z,69.75
2023-01-03T00:14:12.333Z,65.50
2023-01-03T00:16:45.136Z,73.25
2023-01-03T00:19:16.060Z,64.75
2023-01-03T00:21:48.766Z,69.50
2023-01-03T00:24:31.771Z,67.75
2023-01-03T00:27:05.167Z,67.50
2023-01-03T00:29:36.366Z,67.50
2023-01-03T00:32:27.777Z,69.50
2023-01-03T00:35:03.117Z,72.75
2023-01-03T00:37:30.752Z,68.75
2023-01-03T00:40:03.002Z,68.00
2023-01-03T00:42:35.203Z,71.50
2023-01-03T00:45:16.206Z,71.75
2023-01-03T00:47:44.509Z,10.75
2023-01-03T00:50:15.107Z,78.25
2023-01-03T00:52:54.609Z,77.50
2023-01-03T00:55:25.137Z,72.75
2023-01-03T00:57:56.974Z,76.50
2023-01-03T01:00:28.279Z,79.00
2023-01-03T01:02:59.145Z,85.50
2023-01-03T01:05:30.987Z,96.00
2023-01-03T01:08:02.998Z,94.50
2023-01-03T01:10:34.678Z,91.75
2023-01-03T01:13:05.494Z,83.50
2023-01-03T01:15:36.149Z,83.00
2023-01-03T01:18:06.778Z,83.00
2023-01-03T01:20:39.999Z,82.50
2023-01-03T01:23:10.459Z,79.75
2023-01-03T01:25:40.781Z,83.50
2023-01-03T01:28:11.271Z,77.00
2023-01-03T01:30:42.102Z,78.75
2023-01-03T01:33:12.632Z,76.50
2023-01-03T01:35:43.139Z,75.00
2023-01-03T01:38:14.154Z,77.25
2023-01-03T01:40:50.165Z,74.25
2023-01-03T01:43:25.552Z,74.50
2023-01-03T01:45:56.306Z,75.00
2023-01-03T01:48:28.344Z,75.75
2023-01-03T01:51:00.240Z,67.25
2023-01-03T01:53:39.768Z,65.25
2023-01-03T01:56:19.275Z,69.25
2023-01-03T01:58:52.381Z,62.50
2023-01-03T02:01:24.949Z,55.00
2023-01-03T02:03:58.409Z,66.25
2023-01-03T02:06:31.374Z,64.50
2023-01-03T02:09:03.291Z,64.50
2023-01-03T02:11:39.668Z,63.00
2023-01-03T02:14:13.341Z,65.00
2023-01-03T02:17:03.917Z,69.00
2023-01-03T02:19:49.495Z,70.25
2023-01-03T02:22:41.094Z,65.50
2023-01-03T02:25:31.333Z,63.75
2023-01-03T02:28:22.282Z,61.00
2023-01-03T02:31:10.626Z,55.00
2023-01-03T02:36:37.440Z,53.00
2023-01-03T02:39:27.366Z,57.00
2023-01-03T02:42:06.407Z,58.75
2023-01-03T02:44:39.412Z,48.75
2023-01-03T02:47:12.977Z,58.75
2023-01-03T02:49:48.827Z,59.25
2023-01-03T02:52:22.197Z,52.25
2023-01-03T02:55:04.874Z,45.50
2023-01-03T02:57:41.853Z,56.75
2023-01-03T03:00:16.919Z,53.50
2023-01-03T03:02:51.352Z,59.75
2023-01-03T03:05:31.726Z,59.50
2023-01-03T03:08:02.426Z,54.25
2023-01-03T03:10:35.068Z,46.00
2023-01-03T03:13:20.402Z,44.50
2023-01-03T03:16:23.747Z,61.75
2023-01-03T03:18:59.792Z,56.50
2023-01-03T03:21:33.313Z,67.75
2023-01-03T03:24:06.775Z,50.25
2023-01-03T03:26:43.327Z,36.50
2023-01-03T03:29:17.090Z,47.75
2023-01-03T03:31:53.990Z,50.00
2023-01-03T03:34:30.537Z,37.00
2023-01-03T03:37:06.464Z,27.25
2023-01-03T03:39:38.262Z,44.25
2023-01-03T03:42:27.703Z,53.25
2023-01-03T03:45:03.251Z,32.00
2023-01-03T03:47:56.240Z,25.25
2023-01-03T03:50:48.756Z,45.50
2023-01-03T03:53:22.396Z,47.25
2023-01-03T03:55:56.066Z,53.00
2023-01-03T03:58:40.529Z,47.00
2023-01-03T04:01:13.888Z,43.00
2023-01-03T04:03:46.742Z,32.75
2023-01-03T04:06:22.985Z,56.50
2023-01-03T04:08:53.412Z,38.50
2023-01-03T04:11:24.463Z,35.33
2023-01-03T04:13:54.956Z,24.75
2023-01-03T04:16:25.309Z,32.75
2023-01-03T04:18:56.017Z,41.00
2023-01-03T04:21:29.933Z,37.00
2023-01-03T04:24:02.293Z,36.00
2023-01-03T04:26:38.994Z,40.25
2023-01-03T04:29:09.560Z,41.25
2023-01-03T04:31:40.565Z,41.75
2023-01-03T04:34:11.319Z,36.50
2023-01-03T04:36:41.901Z,32.00
2023-01-03T04:39:12.491Z,37.25
2023-01-03T04:41:45.720Z,30.00
2023-01-03T04:44:17.652Z,32.00
2023-01-03T04:46:53.103Z,35.25
2023-01-03T04:49:24.329Z,40.00
2023-01-03T04:51:57.476Z,38.00
2023-01-03T04:54:30.040Z,31.00
2023-01-03T04:57:03.280Z,33.25
2023-01-03T04:59:35.237Z,33.75
2023-01-03T05:02:07.524Z,34.75
2023-01-03T05:04:38.206Z,29.50
2023-01-03T05:07:15.442Z,42.25
2023-01-03T05:09:46.571Z,38.75
2023-01-03T05:12:20.889Z,43.50
2023-01-03T05:14:51.586Z,30.00
2023-01-03T05:17:28.274Z,39.00
2023-01-03T05:23:11.144Z,38.00
2023-01-03T05:25:43.249Z,40.50
2023-01-03T05:28:17.725Z,45.75
2023-01-03T05:30:52.898Z,51.25
2023-01-03T05:33:26.509Z,47.00
2023-01-03T05:36:02.826Z,42.00
2023-01-03T05:38:33.872Z,39.25
2023-01-03T05:41:06.274Z,34.50
2023-01-03T05:43:42.409Z,43.25
2023-01-03T05:46:14.681Z,49.00
2023-01-03T05:48:45.152Z,42.25
2023-01-03T05:51:18.297Z,45.50
2023-01-03T05:53:51.844Z,54.25
2023-01-03T05:56:40.265Z,49.00
2023-01-03T05:59:12.307Z,48.25
2023-01-03T06:01:45.346Z,57.25
2023-01-03T06:04:17.396Z,44.75
2023-01-03T06:06:47.994Z,39.75
2023-01-03T06:09:21.733Z,37.75
2023-01-03T06:11:52.862Z,45.25
2023-01-03T06:14:25.536Z,43.50
2023-01-03T06:16:56.065Z,54.25
2023-01-03T06:19:29.946Z,50.75
2023-01-03T06:22:03.280Z,39.50
2023-01-03T06:24:35.866Z,42.00
2023-01-03T06:27:10.811Z,36.75
2023-01-03T06:29:41.095Z,48.25
2023-01-03T06:32:11.550Z,45.00
2023-01-03T06:34:43.415Z,45.50
2023-01-03T06:37:13.959Z,52.00
2023-01-03T06:39:44.466Z,55.25
2023-01-03T06:42:14.784Z,36.25
2023-01-03T06:44:46.542Z,43.50
2023-01-03T06:47:16.832Z,37.00
2023-01-03T06:49:57.846Z,44.75
2023-01-03T06:55:19.012Z,35.75
2023-01-03T06:58:23.696Z,41.00
2023-01-03T07:01:19.475Z,38.75
2023-01-03T07:03:48.263Z,45.50
2023-01-03T07:06:18.581Z,45.75
2023-01-03T07:08:49.234Z,44.00
2023-01-03T07:11:20.485Z,44.75
2023-01-03T07:13:58.090Z,44.75
2023-01-03T07:16:36.608Z,45.75
2023-01-03T07:19:09.156Z,53.00
2023-01-03T07:21:40.417Z,49.50
2023-01-03T07:24:23.180Z,46.75
2023-01-03T07:26:54.051Z,47.00
2023-01-03T07:29:37.386Z,43.75
2023-01-03T07:32:19.451Z,44.50
2023-01-03T07:34:49.796Z,43.75
2023-01-03T07:37:20.144Z,47.00
2023-01-03T07:39:58.514Z,40.50
2023-01-03T07:42:33.717Z,48.25
2023-01-03T07:45:04.758Z,46.00
2023-01-03T07:47:58.583Z,55.50
2023-01-03T07:50:29.450Z,45.00
2023-01-03T07:53:01.488Z,44.25
2023-01-03T07:55:35.453Z,50.00
2023-01-03T07:58:12.664Z,48.25
2023-01-03T08:00:49.910Z,42.00
2023-01-03T08:03:29.330Z,49.00
2023-01-03T08:06:04.735Z,48.25
2023-01-03T08:08:36.459Z,54.25
2023-01-03T08:11:08.903Z,52.75
2023-01-03T08:13:47.541Z,48.00
2023-01-03T08:16:22.391Z,52.00
2023-01-03T08:18:56.644Z,47.00
2023-01-03T08:21:27.610Z,53.75
2023-01-03T08:24:03.020Z,53.25
2023-01-03T08:26:35.475Z,44.75
2023-01-03T08:29:14.088Z,52.50
2023-01-03T08:31:54.648Z,54.25
2023-01-03T08:34:32.879Z,44.75
2023-01-03T08:37:10.124Z,52.75
2023-01-03T08:40:02.856Z,51.00
2023-01-03T08:42:38.202Z,48.75
2023-01-03T08:45:21.357Z,55.25
2023-01-03T08:47:57.627Z,56.50
2023-01-03T08:53:56.856Z,48.75
2023-01-03T08:56:40.056Z,48.50
2023-01-03T08:59:14.299Z,31.25
2023-01-03T09:01:52.634Z,49.25
2023-01-03T09:04:24.864Z,51.25
2023-01-03T09:06:59.890Z,51.00
2023-01-03T09:09:37.336Z,46.25
2023-01-03T09:12:12.889Z,35.00
2023-01-03T09:14:47.020Z,44.75
2023-01-03T09:17:18.926Z,57.00
2023-01-03T09:20:14.125Z,44.25
2023-01-03T09:22:44.973Z,49.25
2023-01-03T09:25:20.526Z,49.00
2023-01-03T09:27:56.673Z,50.50
2023-01-03T09:33:17.282Z,54.00
2023-01-03T09:35:48.494Z,53.25
2023-01-03T09:38:21.194Z,50.50
2023-01-03T09:41:01.044Z,51.25
2023-01-03T09:43:41.341Z,50.50
2023-01-03T09:46:19.242Z,53.25
2023-01-03T09:48:59.861Z,51.50
2023-01-03T09:51:47.116Z,56.75
2023-01-03T09:54:29.634Z,54.25
2023-01-03T09:57:04.528Z,57.25
2023-01-03T09:59:41.195Z,56.50
2023-01-03T10:02:36.632Z,55.75
2023-01-03T10:05:38.823Z,51.75
2023-01-03T10:08:45.304Z,50.50
2023-01-03T10:11:34.927Z,55.75
2023-01-03T10:17:53.859Z,54.75
2023-01-03T10:27:27.784Z,60.75
2023-01-03T10:30:10.346Z,64.50
2023-01-03T10:33:35.318Z,54.50
2023-01-03T10:36:20.397Z,57.00
2023-01-03T10:45:56.608Z,55.75
2023-01-03T10:49:25.515Z,56.00
2023-01-03T10:51:59.019Z,63.75
2023-01-03T10:54:45.589Z,44.00
2023-01-03T11:00:38.002Z,55.50
2023-01-03T11:03:31.789Z,55.25
2023-01-03T11:06:17.681Z,57.25
2023-01-03T11:08:57.848Z,58.25
2023-01-03T11:11:38.590Z,53.25
2023-01-03T11:14:42.495Z,50.75
2023-01-03T11:17:21.412Z,63.75
2023-01-03T11:20:20.421Z,51.25
2023-01-03T11:22:56.118Z,64.25
2023-01-03T11:28:57.670Z,63.50
2023-01-03T11:31:46.625Z,58.00
2023-01-03T11:34:41.998Z,58.00
2023-01-03T11:40:30.872Z,59.00
2023-01-03T11:43:24.346Z,57.00
2023-01-03T11:46:08.231Z,56.00
2023-01-03T11:52:13.744Z,59.25
2023-01-03T11:58:31.454Z,50.75
2023-01-03T11:58:44.997Z,57.25
2023-01-03T12:01:37.083Z,61.25
2023-01-03T12:13:54.002Z,60.25
2023-01-03T14:19:06.180Z,60.00
2023-01-03T14:21:44.239Z,64.75
2023-01-03T14:24:22.712Z,60.75
2023-01-03T14:27:06.978Z,63.00
2023-01-03T14:32:56.651Z,60.00
2023-01-03T14:35:41.164Z,69.75
2023-01-03T14:38:40.403Z,62.25
2023-01-03T14:41:36.196Z,55.00
2023-01-03T14:44:22.508Z,62.75
2023-01-03T14:47:12.084Z,58.75
2023-01-03T14:50:33.445Z,61.25
2023-01-03T14:53:07.532Z,60.75
2023-01-03T14:55:38.361Z,62.75
2023-01-03T14:58:39.199Z,63.50
2023-01-03T15:04:06.074Z,61.00
2023-01-03T15:07:25.945Z,64.00
2023-01-03T15:10:14.046Z,65.00
2023-01-03T15:13:04.157Z,62.50
2023-01-03T15:15:42.251Z,61.50
2023-01-03T15:24:43.186Z,64.00
2023-01-03T15:46:09.721Z,61.25
2023-01-03T15:49:01.268Z,64.75
2023-01-03T15:51:37.726Z,62.50
2023-01-03T16:00:26.244Z,52.00
2023-01-03T16:03:38.558Z,58.25
2023-01-03T16:09:14.337Z,60.50
2023-01-03T16:11:46.901Z,60.00
2023-01-03T16:20:20.075Z,57.50
2023-01-03T16:23:00.443Z,61.50
2023-01-03T16:25:25.041Z,54.00
2023-01-03T16:27:56.637Z,62.00
2023-01-03T16:30:27.255Z,55.50
2023-01-03T16:35:49.257Z,62.50
2023-01-03T16:38:19.624Z,62.00
2023-01-03T16:41:14.087Z,59.50
2023-01-03T16:47:38.988Z,46.25
2023-01-03T16:59:24.694Z,65.75
2023-01-03T17:02:08.340Z,58.00
2023-01-03T17:04:44.051Z,61.50
2023-01-03T17:07:36.360Z,61.00
2023-01-03T17:10:29.493Z,61.00
2023-01-03T17:18:00.716Z,60.50
2023-01-03T17:19:03.236Z,62.00
2023-01-03T17:21:52.725Z,64.25
2023-01-03T17:30:09.077Z,61.50
2023-01-03T19:16:26.391Z,55.50
2023-01-03T19:18:59.226Z,55.25
2023-01-03T19:37:52.972Z,57.00
2023-01-03T19:40:35.897Z,58.50
2023-01-03T19:43:26.211Z,55.75
2023-01-03T19:45:57.634Z,49.00
2023-01-03T19:51:13.449Z,53.00
2023-01-03T19:53:51.607Z,28.50
2023-01-03T19:59:51.616Z,41.50
2023-01-03T22:39:21.285Z,46.75
2023-01-03T22:42:07.935Z,54.25
2023-01-03T23:15:52.138Z,38.50
2023-01-03T23:41:55.962Z,45.00
2023-01-03T23:57:18.176Z,42.00
2023-01-03T23:59:49.015Z,41.00
